Shagang Hongfa — 9V9138 — position and weather

sailwx.info

Track history (hours):
 
Tides and Currents Weather Stations Pressure Air Temp Water Temp Dewpoint Dewpoint Depression Visibility Wind Speed Wind Dir Waves Ship Positions

Shagang Hongfa

Last reported at 2018-May-14 16:40 UTC. Time now 2018-May-21 05:25 UTC.
Position S 20°20' E 116°43'.

Length 292 m; draft 18.1 m.

Type: Cargo ship. MMSI: 566178000.

Date/timePositionNaut miles runAvg speedWind from/ knotsBaromVisibWave heightAir tempDewpointWater temp
2018-May-14 16:40S 20°20' E 116°43'210.0
2018-May-14 16:30S 20°21' E 116°43'7 8.9
2018-May-14 15:44S 20°28' E 116°43'2 9.6
2018-May-14 15:30S 20°30' E 116°43'510.0
2018-May-14 14:58S 20°36' E 116°42'3 0.1
2018-May-12 13:56S 20°37' E 116°44'3 7.2
2018-May-12 13:30S 20°35' E 116°42'611.7
2018-May-12 12:59S 20°29' E 116°44'611.3
2018-May-12 12:30S 20°23' E 116°42'4 6.6
2018-May-12 11:55S 20°20' E 116°43'3 6.6
2018-May-12 11:30S 20°17' E 116°44'3 5.6
2018-May-12 10:54S 20°14' E 116°45'3 5.1
2018-May-12 10:20S 20°11' E 116°46'2 5.7
2018-May-12 09:59S 20°09' E 116°47'  
Track history (hours):
 
Tides and Currents Weather Stations Pressure Air Temp Water Temp Dewpoint Dewpoint Depression Visibility Wind Speed Wind Dir Waves Ship Positions

Shagang Hongfa

Last reported at 2018-May-14 16:40 UTC. Time now 2018-May-21 05:25 UTC.
Position S 20°20' E 116°43'.

Length 292 m; draft 18.1 m.

Type: Cargo ship. MMSI: 566178000.

Date/timePositionNaut miles runAvg speedWind from/ knotsBaromVisibWave heightAir tempDewpointWater temp
2018-May-14 16:40S 20°20' E 116°43'210.0
2018-May-14 16:30S 20°21' E 116°43'7 8.9
2018-May-14 15:44S 20°28' E 116°43'2 9.6
2018-May-14 15:30S 20°30' E 116°43'510.0
2018-May-14 14:58S 20°36' E 116°42'3 0.1
2018-May-12 13:56S 20°37' E 116°44'3 7.2
2018-May-12 13:30S 20°35' E 116°42'611.7
2018-May-12 12:59S 20°29' E 116°44'611.3
2018-May-12 12:30S 20°23' E 116°42'4 6.6
2018-May-12 11:55S 20°20' E 116°43'3 6.6
2018-May-12 11:30S 20°17' E 116°44'3 5.6
2018-May-12 10:54S 20°14' E 116°45'3 5.1
2018-May-12 10:20S 20°11' E 116°46'2 5.7
2018-May-12 09:59S 20°09' E 116°47'  

Dump ship's entire track history